Temp: 11.7°C   Hum: 87%
  Wind: 0.0mph   Dir: W (276°)
  Rain: 0.0mm Rate: 0.0mm/hr
  Pressure: 1027.2mb

Historic data

Bath Spa Weather Station Historical Data
Daily Summary for October 16, 2021 Units:  English    Metric   Both
Daily Weekly Monthly Yearly Custom
  High: Low: Average:
Temperature: 63.1 °F 49.3 °F 55.2 °F
Dew Point: 56.4 °F 48.1 °F 51.9 °F
Humidity: 94.2% 70.4% 86%
Wind Speed: 7.8mph 0mph 1.2mph
Wind Gust: 12mph - -
Wind- - ESE
Pressure: 30.19 in 30.06 in -
Precipitation: 0.02 in    
Historical Graphs
 
 
Tabular Data for October 16, 2021
Time Temperature Dew Point Pressure Wind Wind Speed Wind Gust Humidity Rainfall Rate (Hourly) solar
00:09 53.8 °F 50.5 °F 30.19 in NE 0.5 mph 3 mph 86% 0.00 in 0 W/m2
00:14 53.8 °F 50.5 °F 30.19 in NE 1.2 mph 3 mph 86% 0.00 in 0 W/m2
00:19 53.8 °F 50.5 °F 30.19 in NE 0.5 mph 3 mph 86% 0.00 in 0 W/m2
00:24 53.8 °F 50.5 °F 30.19 in NE 0.6 mph 2 mph 86% 0.00 in 0 W/m2
00:29 53.8 °F 50.5 °F 30.19 in NE 0.7 mph 2 mph 86% 0.00 in 0 W/m2
00:34 53.8 °F 50.5 °F 30.19 in NE 0.2 mph 2 mph 86% 0.00 in 0 W/m2
00:39 53.7 °F 50.4 °F 30.19 in NE 0.2 mph 2 mph 86% 0.00 in 0 W/m2
00:44 53.7 °F 50.5 °F 30.19 in NE 0.4 mph 2 mph 86% 0.00 in 0 W/m2
00:49 53.6 °F 50.4 °F 30.19 in NE 0.4 mph 2 mph 86% 0.00 in 0 W/m2
00:54 53.8 °F 50.5 °F 30.19 in NE 0.5 mph 2 mph 86% 0.00 in 0 W/m2
00:59 53.6 °F 50.4 °F 30.18 in NE 0.5 mph 2 mph 86% 0.00 in 0 W/m2
01:03 53.6 °F 50.6 °F 30.18 in NE 0.5 mph 2 mph 86.8% 0.00 in 0 W/m2
01:09 53.6 °F 50.7 °F 30.18 in NE 0.6 mph 3 mph 87% 0.00 in 0 W/m2
01:14 53.6 °F 50.7 °F 30.18 in Calm   1 mph 87% 0.00 in 0 W/m2
01:19 53.6 °F 50.7 °F 30.18 in Calm     87% 0.00 in 0 W/m2
01:24 53.4 °F 50.5 °F 30.18 in NE 1.6 mph 3 mph 87% 0.00 in 0 W/m2
01:29 53.4 °F 50.5 °F 30.18 in NE 0.4 mph 3 mph 87% 0.00 in 0 W/m2
01:34 53.4 °F 50.5 °F 30.18 in NE 1.6 mph 4 mph 87% 0.00 in 0 W/m2
01:39 53.4 °F 50.5 °F 30.18 in NE 0.8 mph 3 mph 87% 0.00 in 0 W/m2
01:44 53.3 °F 50.4 °F 30.18 in NE 0.6 mph 3 mph 87% 0.00 in 0 W/m2
01:49 53.2 °F 50.4 °F 30.18 in NE 0.4 mph 2 mph 87% 0.00 in 0 W/m2
01:54 53.2 °F 50.4 °F 30.18 in NE 0.2 mph 2 mph 87% 0.00 in 0 W/m2
01:59 53.1 °F 50.3 °F 30.18 in Calm   1 mph 87% 0.00 in 0 W/m2
02:04 53.1 °F 50.2 °F 30.18 in NE 0.4 mph 3 mph 87% 0.00 in 0 W/m2
02:09 53.1 °F 50.2 °F 30.18 in NE 0.8 mph 3 mph 87% 0.00 in 0 W/m2
02:14 53.1 °F 50.2 °F 30.18 in NE 0.4 mph 3 mph 87% 0.00 in 0 W/m2
02:19 53.1 °F 50.2 °F 30.18 in NE 0.4 mph 4 mph 87% 0.00 in 0 W/m2
02:24 53.1 °F 50.2 °F 30.18 in Calm     87% 0.00 in 0 W/m2
02:29 53.1 °F 50.2 °F 30.18 in NE 1.2 mph 2 mph 87% 0.00 in 0 W/m2
02:34 53.1 °F 50.4 °F 30.17 in NE 0.2 mph 2 mph 87.6% 0.00 in 0 W/m2
02:39 53.1 °F 50.5 °F 30.17 in NE 0.6 mph 2 mph 88% 0.00 in 0 W/m2
02:44 53.2 °F 50.7 °F 30.17 in NE 0.2 mph 2 mph 88% 0.00 in 0 W/m2
02:49 53.2 °F 50.7 °F 30.17 in NE 0.8 mph 3 mph 88% 0.00 in 0 W/m2
02:54 53.2 °F 50.7 °F 30.17 in NE 0.4 mph 2 mph 88% 0.00 in 0 W/m2
02:59 53.1 °F 50.5 °F 30.17 in NE 1.2 mph 3 mph 88% 0.02 in 0 W/m2
03:04 53.1 °F 50.5 °F 30.17 in NE 0.9 mph 2 mph 88% 0.02 in 0 W/m2
03:09 53.1 °F 50.5 °F 30.16 in NE 1.3 mph 2 mph 88% 0.02 in 0 W/m2
03:14 53.1 °F 50.5 °F 30.16 in NE 1.2 mph 3 mph 88% 0.02 in 0 W/m2
03:19 53.1 °F 50.7 °F 30.16 in Calm   1 mph 88.8% 0.02 in 0 W/m2
03:24 53 °F 50.6 °F 30.16 in NE 0.2 mph 2 mph 89% 0.02 in 0 W/m2
03:29 52.9 °F 50.5 °F 30.16 in NE 1.3 mph 3 mph 89% 0.02 in 0 W/m2
03:34 52.9 °F 50.5 °F 30.16 in NE 1.2 mph 3 mph 89% 0.02 in 0 W/m2
03:39 52.7 °F 50.5 °F 30.16 in NE 0.2 mph 2 mph 89.2% 0.02 in 0 W/m2
03:44 52.6 °F 50.4 °F 30.16 in Calm     89.2% 0.02 in 0 W/m2
03:49 52.5 °F 50.3 °F 30.16 in Calm     89.4% 0.02 in 0 W/m2
03:54 52.4 °F 50.4 °F 30.15 in NE 0.2 mph 2 mph 90% 0.02 in 0 W/m2
03:59 52.2 °F 50.2 °F 30.15 in Calm   2 mph 90% 0.02 in 0 W/m2
04:04 52 °F 50 °F 30.16 in NE 0.2 mph 1 mph 90% 0.00 in 0 W/m2
04:09 51.7 °F 49.7 °F 30.16 in Calm   2 mph 90% 0.00 in 0 W/m2
04:14 51.4 °F 49.5 °F 30.16 in Calm     90% 0.00 in 0 W/m2
04:19 51.3 °F 49.3 °F 30.16 in Calm     90% 0.00 in 0 W/m2
04:24 51.1 °F 49.1 °F 30.15 in Calm     90% 0.00 in 0 W/m2
04:29 51.1 °F 49.3 °F 30.15 in NE 0.2 mph 1 mph 90.4% 0.00 in 0 W/m2
04:34 51.1 °F 49.5 °F 30.15 in Calm     91% 0.00 in 0 W/m2
04:39 51.1 °F 49.5 °F 30.15 in Calm     91% 0.00 in 0 W/m2
04:44 51.1 °F 49.5 °F 30.15 in NE 0.2 mph 1 mph 91% 0.00 in 0 W/m2
04:49 51.1 °F 49.5 °F 30.15 in Calm     91% 0.00 in 0 W/m2
04:54 51.1 °F 49.5 °F 30.15 in Calm   1 mph 91% 0.00 in 0 W/m2
04:59 51.1 °F 49.5 °F 30.15 in Calm     91% 0.00 in 0 W/m2
05:04 51.1 °F 49.5 °F 30.14 in Calm     91% 0.00 in 0 W/m2
05:09 51.1 °F 49.5 °F 30.14 in Calm     91.2% 0.00 in 0 W/m2
05:14 51.1 °F 49.6 °F 30.14 in Calm     92% 0.00 in 0 W/m2
05:19 51.1 °F 49.5 °F 30.14 in Calm     91% 0.00 in 0 W/m2
05:24 50.8 °F 49.3 °F 30.14 in Calm     91.2% 0.00 in 0 W/m2
05:29 50.7 °F 49.5 °F 30.14 in Calm     92% 0.00 in 0 W/m2
05:34 50.7 °F 49.5 °F 30.14 in Calm     92% 0.00 in 0 W/m2
05:39 50.5 °F 49.3 °F 30.14 in Calm     92% 0.00 in 0 W/m2
05:44 50.5 °F 49.2 °F 30.14 in Calm     92% 0.00 in 0 W/m2
05:49 50.3 °F 49 °F 30.14 in Calm     92% 0.00 in 0 W/m2
05:54 50.2 °F 48.9 °F 30.14 in Calm     92% 0.00 in 0 W/m2
05:59 49.9 °F 48.7 °F 30.14 in Calm     92% 0.00 in 0 W/m2
06:04 49.7 °F 48.5 °F 30.14 in Calm     92% 0.00 in 0 W/m2
06:09 49.5 °F 48.2 °F 30.14 in Calm     92% 0.00 in 0 W/m2
06:14 49.3 °F 48.1 °F 30.14 in Calm     92% 0.00 in 0 W/m2
06:19 49.4 °F 48.1 °F 30.14 in Calm     92% 0.00 in 0 W/m2
06:24 49.4 °F 48.1 °F 30.14 in Calm     92% 0.00 in 0 W/m2
06:29 49.5 °F 48.2 °F 30.14 in Calm     92% 0.00 in 0 W/m2
06:34 49.6 °F 48.5 °F 30.14 in Calm     92.5% 0.00 in 0 W/m2
06:39 49.6 °F 48.6 °F 30.14 in Calm     93% 0.00 in 0 W/m2
06:44 49.7 °F 48.6 °F 30.14 in Calm     92.8% 0.00 in 0 W/m2
06:49 49.9 °F 48.8 °F 30.14 in Calm     93% 0.00 in 0 W/m2
06:54 50 °F 48.9 °F 30.14 in Calm     93% 0.00 in 0 W/m2
06:59 50.1 °F 49 °F 30.14 in Calm     93% 0.00 in 0 W/m2
07:04 50.2 °F 49.1 °F 30.14 in Calm     93% 0.00 in 0 W/m2
07:09 50.2 °F 49.1 °F 30.14 in Calm     93% 0.00 in 0 W/m2
07:14 50.2 °F 49.1 °F 30.14 in Calm     93% 0.00 in 0 W/m2
07:19 50.3 °F 49.2 °F 30.14 in Calm     93% 0.00 in 0 W/m2
07:24 50.4 °F 49.3 °F 30.14 in Calm     93% 0.00 in 0 W/m2
07:29 50.4 °F 49.3 °F 30.14 in Calm     93% 0.00 in 0 W/m2
07:34 50.5 °F 49.4 °F 30.14 in Calm     93% 0.00 in 0 W/m2
07:39 50.5 °F 49.5 °F 30.14 in Calm     93% 0.00 in 0 W/m2
07:44 50.5 °F 49.5 °F 30.14 in Calm     93% 0.00 in 5 W/m2
07:49 50.7 °F 49.6 °F 30.14 in Calm     93% 0.00 in 7 W/m2
07:54 50.7 °F 49.6 °F 30.14 in Calm     93% 0.00 in 12 W/m2
07:59 50.8 °F 49.7 °F 30.14 in Calm     93% 0.00 in 16 W/m2
08:04 51.1 °F 50 °F 30.14 in Calm     93% 0.00 in 25 W/m2
08:09 51.1 °F 50.2 °F 30.15 in Calm     93.6% 0.00 in 30 W/m2
08:14 51.3 °F 50.5 °F 30.15 in Calm     93.8% 0.00 in 35 W/m2
08:19 51.4 °F 50.5 °F 30.15 in Calm     93.2% 0.00 in 37 W/m2
08:24 51.6 °F 50.7 °F 30.15 in NE 0.2 mph 1 mph 93.4% 0.00 in 28 W/m2
08:29 52 °F 51.3 °F 30.15 in NE 0.2 mph 2 mph 94% 0.00 in 30 W/m2
08:34 52.2 °F 51.4 °F 30.15 in NE 0.4 mph 2 mph 94% 0.00 in 35 W/m2
08:39 52.3 °F 51.5 °F 30.15 in NE 0.2 mph 2 mph 94% 0.00 in 37 W/m2
08:44 52.3 °F 51.6 °F 30.15 in NE 0.9 mph 2 mph 94% 0.00 in 51 W/m2
08:49 52.4 °F 51.7 °F 30.15 in Calm   2 mph 94% 0.00 in 54 W/m2
08:54 52.5 °F 51.8 °F 30.15 in NE 0.4 mph 2 mph 94% 0.00 in 63 W/m2
08:59 52.5 °F 51.8 °F 30.15 in NE 2.4 mph 4 mph 94% 0.00 in 95 W/m2
09:04 52.5 °F 51.8 °F 30.15 in NE 0.4 mph 3 mph 94% 0.00 in 153 W/m2
09:09 52.5 °F 51.8 °F 30.15 in NE 0.6 mph 4 mph 94% 0.00 in 163 W/m2
09:14 52.5 °F 51.8 °F 30.16 in NE 1.3 mph 4 mph 94% 0.00 in 169 W/m2
09:19 52.5 °F 51.8 °F 30.16 in NE 0.8 mph 3 mph 94% 0.00 in 83 W/m2
09:24 52.5 °F 51.8 °F 30.16 in NE 1.4 mph 4 mph 94% 0.00 in 84 W/m2
09:29 52.5 °F 51.8 °F 30.16 in NE 0.8 mph 4 mph 94% 0.00 in 100 W/m2
09:34 52.8 °F 52.1 °F 30.16 in NE 1.5 mph 4 mph 94% 0.00 in 63 W/m2
09:39 52.7 °F 52 °F 30.16 in NE 0.8 mph 3 mph 94% 0.01 in 49 W/m2
09:44 52.6 °F 51.9 °F 30.16 in NE 2.2 mph 5 mph 94% 0.01 in 102 W/m2
09:49 52.5 °F 51.8 °F 30.15 in NE 2 mph 4 mph 94% 0.01 in 104 W/m2
09:54 52.7 °F 52 °F 30.15 in NE 1.3 mph 4 mph 94% 0.01 in 95 W/m2
09:59 52.7 °F 52 °F 30.15 in NE 1.1 mph 4 mph 94% 0.01 in 105 W/m2
10:04 52.7 °F 52 °F 30.16 in NE 1 mph 3 mph 94% 0.01 in 102 W/m2
10:09 52.7 °F 52 °F 30.16 in NE 0.6 mph 2 mph 94% 0.01 in 111 W/m2
10:14 52.5 °F 51.8 °F 30.16 in NE 0.8 mph 3 mph 94% 0.01 in 114 W/m2
10:19 52.5 °F 51.8 °F 30.16 in NE 0.5 mph 2 mph 94% 0.01 in 104 W/m2
10:24 52.5 °F 51.8 °F 30.16 in NE 0.6 mph 2 mph 94% 0.01 in 105 W/m2
10:29 53 °F 52.2 °F 30.16 in NE 0.2 mph 2 mph 94% 0.01 in 113 W/m2
10:34 53.2 °F 52.4 °F 30.16 in Calm     94% 0.01 in 135 W/m2
10:39 53.6 °F 52.9 °F 30.16 in NE 0.6 mph 3 mph 94% 0.01 in 137 W/m2
10:44 53.4 °F 52.7 °F 30.16 in NE 0.5 mph 4 mph 94% 0.00 in 176 W/m2
10:49 53.7 °F 53 °F 30.16 in NE 0.4 mph 2 mph 94% 0.00 in 202 W/m2
10:54 53.9 °F 53.2 °F 30.15 in Calm   2 mph 94% 0.00 in 197 W/m2
10:59 53.9 °F 53.2 °F 30.15 in NE 0.2 mph 2 mph 94% 0.00 in 202 W/m2
11:04 54.5 °F 53.8 °F 30.15 in NE 0.8 mph 3 mph 94.2% 0.00 in 258 W/m2
11:09 55.1 °F 54.4 °F 30.15 in NE 2.1 mph 4 mph 94.2% 0.00 in 308 W/m2
11:14 55.6 °F 54.9 °F 30.15 in NE 2.5 mph 4 mph 94% 0.00 in 279 W/m2
11:19 56.1 °F 55.2 °F 30.15 in NE 2.3 mph 5 mph 94% 0.00 in 350 W/m2
11:24 56.7 °F 55.8 °F 30.15 in NE 1.4 mph 5 mph 94% 0.00 in 325 W/m2
11:29 56.7 °F 55.6 °F 30.15 in NE 1.2 mph 5 mph 93.2% 0.00 in 279 W/m2
11:34 56.7 °F 55.7 °F 30.15 in NE 0.9 mph 3 mph 93% 0.00 in 316 W/m2
11:39 57.4 °F 56.2 °F 30.15 in NE 1.6 mph 3 mph 92.6% 0.00 in 218 W/m2
11:44 57.3 °F 55.7 °F 30.15 in NE 2.8 mph 7 mph 91.8% 0.00 in 306 W/m2
11:49 56.8 °F 55 °F 30.15 in NE 3.3 mph 8 mph 90.6% 0.00 in 292 W/m2
11:54 56.5 °F 54.5 °F 30.14 in NE 4 mph 8 mph 90% 0.00 in 279 W/m2
11:59 56.5 °F 54.5 °F 30.14 in NE 2.5 mph 5 mph 90% 0.00 in 367 W/m2
12:04 56.8 °F 54.9 °F 30.14 in NE 2.5 mph 5 mph 90% 0.00 in 369 W/m2
12:09 57.6 °F 55.6 °F 30.14 in NE 3.1 mph 8 mph 90% 0.00 in 524 W/m2
12:13 58.3 °F 56 °F 30.14 in NE 3.7 mph 10 mph 89.3% 0.00 in 554 W/m2
12:19 59 °F 56.3 °F 30.14 in NE 2 mph 7 mph 88% 0.00 in 686 W/m2
12:24 59.7 °F 56.4 °F 30.14 in NE 2.9 mph 5 mph 86% 0.00 in 628 W/m2
12:29 59.7 °F 55.9 °F 30.14 in NE 2.7 mph 7 mph 84.4% 0.00 in 633 W/m2
12:34 58.9 °F 55.2 °F 30.14 in NE 4.4 mph 8 mph 84.6% 0.00 in 429 W/m2
12:39 59.3 °F 55.9 °F 30.14 in NE 2.1 mph 7 mph 85.6% 0.00 in 243 W/m2
12:44 59.5 °F 56 °F 30.14 in NE 2.9 mph 7 mph 85.2% 0.00 in 216 W/m2
12:49 59.4 °F 55.8 °F 30.14 in NE 3.1 mph 7 mph 85% 0.00 in 211 W/m2
12:54 59.4 °F 55.8 °F 30.13 in NE 2.9 mph 5 mph 85% 0.00 in 251 W/m2
12:59 59.7 °F 56.1 °F 30.13 in NE 3.5 mph 7 mph 85% 0.00 in 258 W/m2
13:04 60.2 °F 56.4 °F 30.13 in NE 2.8 mph 7 mph 84.4% 0.00 in 471 W/m2
13:09 60.5 °F 56.4 °F 30.12 in NE 2 mph 7 mph 83.6% 0.00 in 276 W/m2
13:14 60.8 °F 56.4 °F 30.12 in NE 2 mph 11 mph 82.8% 0.00 in 626 W/m2
13:19 61.1 °F 55.9 °F 30.12 in East 4 mph 11 mph 80.4% 0.00 in 585 W/m2
13:24 61.7 °F 55.9 °F 30.12 in ESE 2.9 mph 7 mph 78.8% 0.00 in 554 W/m2
13:29 62.1 °F 55.7 °F 30.11 in ESE 2.9 mph 7 mph 77% 0.00 in 566 W/m2
13:34 62.4 °F 55.6 °F 30.11 in ESE 3 mph 7 mph 76% 0.00 in 469 W/m2
13:39 62.2 °F 55.2 °F 30.11 in SSE 7.8 mph 12 mph 75.6% 0.00 in 292 W/m2
13:44 61.4 °F 54.8 °F 30.11 in South 4.1 mph 12 mph 76.8% 0.00 in 450 W/m2
13:49 61.6 °F 55.1 °F 30.11 in South 4.4 mph 8 mph 76.8% 0.00 in 494 W/m2
13:54 61.9 °F 55.3 °F 30.11 in South 3.6 mph 7 mph 76.6% 0.00 in 534 W/m2
13:59 61.7 °F 55.1 °F 30.11 in South 4 mph 9 mph 76.6% 0.00 in 534 W/m2
14:04 61.4 °F 54.8 °F 30.11 in South 3.3 mph 8 mph 76.6% 0.00 in 297 W/m2
14:09 61.7 °F 55.2 °F 30.11 in South 3.8 mph 7 mph 77% 0.00 in 283 W/m2
14:14 61.9 °F 55 °F 30.10 in South 3.3 mph 7 mph 76% 0.00 in 410 W/m2
14:19 62 °F 55 °F 30.10 in South 3.3 mph 7 mph 75.8% 0.00 in 374 W/m2
14:24 62.5 °F 55.2 °F 30.10 in South 3.3 mph 6 mph 74.8% 0.00 in 408 W/m2
14:29 62.6 °F 55.1 °F 30.10 in South 3 mph 6 mph 74.2% 0.00 in 473 W/m2
14:33 62.8 °F 55.5 °F 30.09 in South 3.2 mph 6 mph 74.5% 0.00 in 214 W/m2
14:39 62.2 °F 54.7 °F 30.09 in South 4.7 mph 8 mph 74% 0.00 in 264 W/m2
14:44 62.2 °F 54.7 °F 30.09 in South 3.1 mph 6 mph 74.4% 0.00 in 250 W/m2
14:49 62.2 °F 54.9 °F 30.09 in South 2.9 mph 8 mph 74.6% 0.00 in 285 W/m2
14:54 62.1 °F 54.6 °F 30.09 in South 5.2 mph 9 mph 74.2% 0.00 in 499 W/m2
14:59 62.2 °F 54.7 °F 30.09 in South 4.1 mph 9 mph 74% 0.00 in 550 W/m2
15:04 62.9 °F 55.1 °F 30.09 in South 3.5 mph 7 mph 73.4% 0.00 in 533 W/m2
15:09 63.1 °F 55 °F 30.08 in South 3.6 mph 7 mph 72.4% 0.00 in 378 W/m2
15:14 62.9 °F 54.9 °F 30.08 in South 3.9 mph 7 mph 73% 0.00 in 304 W/m2
15:19 62.6 °F 54.8 °F 30.08 in South 4.4 mph 8 mph 73.2% 0.00 in 211 W/m2
15:24 62.3 °F 54.8 °F 30.08 in South 3.8 mph 8 mph 74% 0.00 in 250 W/m2
15:29 62.4 °F 54.9 °F 30.08 in South 4.1 mph 7 mph 74% 0.00 in 246 W/m2
15:34 62.4 °F 55.2 °F 30.08 in South 2.3 mph 6 mph 74.8% 0.00 in 396 W/m2
15:39 63 °F 55.6 °F 30.08 in South 2.4 mph 5 mph 74.4% 0.00 in 399 W/m2
15:44 63.1 °F 55.6 °F 30.08 in South 3.2 mph 7 mph 73.8% 0.00 in 383 W/m2
15:49 63.1 °F 55.8 °F 30.08 in South 1.6 mph 5 mph 74.4% 0.00 in 329 W/m2
15:54 62.8 °F 55.5 °F 30.08 in South 3.6 mph 6 mph 74.8% 0.00 in 255 W/m2
15:59 62.1 °F 55 °F 30.08 in South 4.6 mph 7 mph 75.4% 0.00 in 121 W/m2
16:04 61.7 °F 54.9 °F 30.08 in South 3.1 mph 7 mph 76.2% 0.00 in 127 W/m2
16:09 61.9 °F 55.3 °F 30.08 in South 2.1 mph 5 mph 76.8% 0.00 in 100 W/m2
16:14 61.8 °F 55 °F 30.08 in South 2.8 mph 6 mph 76.2% 0.00 in 269 W/m2
16:19 61.9 °F 55 °F 30.08 in South 2.2 mph 6 mph 76% 0.00 in 304 W/m2
16:24 62.2 °F 55.3 °F 30.08 in South 3.3 mph 7 mph 75.8% 0.00 in 329 W/m2
16:29 62.6 °F 55.5 °F 30.08 in South 2.9 mph 6 mph 75.2% 0.00 in 336 W/m2
16:34 63 °F 55.2 °F 30.08 in South 3.7 mph 7 mph 73.6% 0.00 in 142 W/m2
16:39 62.5 °F 54.2 °F 30.08 in South 3.5 mph 7 mph 72% 0.00 in 83 W/m2
16:44 62.2 °F 54.3 °F 30.08 in South 2.6 mph 6 mph 73% 0.00 in 171 W/m2
16:49 62.4 °F 54.3 °F 30.08 in South 2.4 mph 6 mph 72.4% 0.00 in 202 W/m2
16:54 62.8 °F 54.5 °F 30.07 in South 3.7 mph 5 mph 72% 0.00 in 202 W/m2
16:59 63 °F 54.6 °F 30.07 in SSW 5.3 mph 10 mph 71.8% 0.00 in 171 W/m2
17:04 62.8 °F 54 °F 30.08 in SSW 5.6 mph 9 mph 70.8% 0.00 in 130 W/m2
17:09 62.2 °F 53.4 °F 30.08 in SSW 4.8 mph 10 mph 70.4% 0.00 in 105 W/m2
17:14 62.2 °F 53.8 °F 30.08 in SSW 2.8 mph 5 mph 71.4% 0.00 in 84 W/m2
17:19 62 °F 53.8 °F 30.07 in SSW 4.1 mph 7 mph 72% 0.00 in 63 W/m2
17:24 61.6 °F 53.4 °F 30.08 in SSW 5.9 mph 9 mph 72.4% 0.00 in 51 W/m2
17:29 61.3 °F 53.3 °F 30.08 in SSW 3.5 mph 7 mph 73% 0.00 in 46 W/m2
17:34 61.2 °F 53.2 °F 30.08 in SSW 3.7 mph 6 mph 73% 0.00 in 37 W/m2
17:39 60.8 °F 53.3 °F 30.08 in SSW 2.5 mph 6 mph 74% 0.00 in 33 W/m2
17:44 60.5 °F 53.2 °F 30.08 in SSW 3.8 mph 6 mph 74.2% 0.00 in 28 W/m2
17:49 60.3 °F 53.2 °F 30.08 in SSW 4.2 mph 7 mph 75% 0.00 in 25 W/m2
17:54 60 °F 53.2 °F 30.08 in SSW 1.2 mph 6 mph 75.6% 0.00 in 21 W/m2
17:59 59.7 °F 53.1 °F 30.08 in SSW 1 mph 4 mph 76% 0.00 in 16 W/m2
18:04 59.7 °F 53.1 °F 30.08 in SSW 0.8 mph 3 mph 76% 0.00 in 14 W/m2
18:09 59.5 °F 53 °F 30.08 in SSW 2 mph 4 mph 76.4% 0.00 in 7 W/m2
18:14 59.2 °F 52.9 °F 30.08 in SSW 1.2 mph 4 mph 77% 0.00 in 0 W/m2
18:19 58.8 °F 52.5 °F 30.08 in Calm   3 mph 77% 0.00 in 0 W/m2
18:24 58.7 °F 52.8 °F 30.08 in Calm   1 mph 78% 0.00 in 0 W/m2
18:29 58.5 °F 52.6 °F 30.08 in SSW 0.2 mph 3 mph 78% 0.00 in 0 W/m2
18:34 58.3 °F 52.3 °F 30.08 in SSW 0.8 mph 3 mph 78% 0.00 in 0 W/m2
18:39 58 °F 52.2 °F 30.08 in SSW 1 mph 3 mph 78.4% 0.00 in 0 W/m2
18:44 57.8 °F 52.2 °F 30.08 in Calm     79% 0.00 in 0 W/m2
18:49 57.7 °F 52.2 °F 30.08 in Calm     79% 0.00 in 0 W/m2
18:54 57.6 °F 52 °F 30.08 in Calm   1 mph 79% 0.00 in 0 W/m2
18:59 57.3 °F 52 °F 30.08 in Calm   1 mph 79.8% 0.00 in 0 W/m2
19:04 57 °F 51.8 °F 30.08 in SSW 0.4 mph 2 mph 80% 0.00 in 0 W/m2
19:09 56.8 °F 51.7 °F 30.08 in SSW 1.2 mph 3 mph 80.4% 0.00 in 0 W/m2
19:14 56.7 °F 51.8 °F 30.08 in Calm   3 mph 81% 0.00 in 0 W/m2
19:19 56.5 °F 51.6 °F 30.08 in Calm     81% 0.00 in 0 W/m2
19:24 56.1 °F 51.5 °F 30.08 in Calm     81.8% 0.00 in 0 W/m2
19:29 55.8 °F 51.3 °F 30.08 in Calm     82% 0.00 in 0 W/m2
19:34 55.6 °F 51.4 °F 30.08 in Calm     82.8% 0.00 in 0 W/m2
19:39 55.6 °F 51.4 °F 30.08 in Calm     83% 0.00 in 0 W/m2
19:44 55.2 °F 51.1 °F 30.08 in Calm     83% 0.00 in 0 W/m2
19:49 55 °F 51.2 °F 30.08 in Calm     83.8% 0.00 in 0 W/m2
19:54 54.9 °F 51.1 °F 30.08 in Calm     84% 0.00 in 0 W/m2
19:59 54.7 °F 50.9 °F 30.08 in Calm     84% 0.00 in 0 W/m2
20:04 54.6 °F 51 °F 30.08 in Calm     85% 0.00 in 0 W/m2
20:09 54.3 °F 50.7 °F 30.08 in Calm     85% 0.00 in 0 W/m2
20:14 54.1 °F 50.5 °F 30.08 in SSW 0.2 mph 1 mph 85% 0.00 in 0 W/m2
20:19 54.1 °F 50.5 °F 30.08 in Calm   2 mph 85% 0.00 in 0 W/m2
20:24 54.3 °F 51.1 °F 30.08 in SSW 1.4 mph 3 mph 86% 0.00 in 0 W/m2
20:29 54.3 °F 51.1 °F 30.08 in SSW 0.2 mph 2 mph 86% 0.00 in 0 W/m2
20:34 54.3 °F 51.1 °F 30.09 in Calm     86% 0.00 in 0 W/m2
20:39 54.3 °F 51.1 °F 30.08 in Calm     86% 0.00 in 0 W/m2
20:44 54.1 °F 50.9 °F 30.08 in Calm     86% 0.00 in 0 W/m2
20:49 54 °F 50.7 °F 30.08 in Calm     86% 0.00 in 0 W/m2
20:54 53.8 °F 50.7 °F 30.09 in SSW 0.2 mph 2 mph 86.4% 0.00 in 0 W/m2
20:59 54 °F 51.1 °F 30.08 in SSW 0.6 mph 2 mph 87% 0.00 in 0 W/m2
21:04 54 °F 51.1 °F 30.08 in SSW 0.6 mph 2 mph 87% 0.00 in 0 W/m2
21:09 54 °F 51.1 °F 30.08 in SSW 0.8 mph 3 mph 87% 0.00 in 0 W/m2
21:14 54 °F 51.1 °F 30.08 in Calm   2 mph 87% 0.00 in 0 W/m2
21:19 53.8 °F 51 °F 30.08 in Calm   1 mph 87% 0.00 in 0 W/m2
21:24 53.8 °F 50.9 °F 30.08 in SSW 0.4 mph 2 mph 87% 0.00 in 0 W/m2
21:29 53.8 °F 50.9 °F 30.08 in SSW 0.6 mph 2 mph 87% 0.00 in 0 W/m2
21:34 53.6 °F 50.7 °F 30.08 in Calm   2 mph 87% 0.00 in 0 W/m2
21:39 53.4 °F 50.5 °F 30.08 in SSW 1.6 mph 3 mph 87% 0.00 in 0 W/m2
21:44 53.4 °F 50.9 °F 30.08 in SSW 0.8 mph 4 mph 88% 0.00 in 0 W/m2
21:49 53.4 °F 50.9 °F 30.08 in SSW 0.2 mph 2 mph 88% 0.00 in 0 W/m2
21:54 53.4 °F 50.9 °F 30.08 in Calm   2 mph 88% 0.00 in 0 W/m2
21:59 53.2 °F 50.7 °F 30.08 in SSW 0.2 mph 2 mph 88% 0.00 in 0 W/m2
22:04 53.2 °F 50.7 °F 30.08 in SSW 0.4 mph 2 mph 88% 0.00 in 0 W/m2
22:09 53.2 °F 50.7 °F 30.08 in SSW 0.4 mph 2 mph 88% 0.00 in 0 W/m2
22:14 53.1 °F 50.5 °F 30.08 in SSW 0.6 mph 3 mph 88% 0.00 in 0 W/m2
22:19 53.1 °F 50.5 °F 30.08 in Calm   2 mph 88% 0.00 in 0 W/m2
22:24 53.1 °F 50.5 °F 30.08 in Calm   1 mph 88% 0.00 in 0 W/m2
22:29 53 °F 50.6 °F 30.07 in Calm   2 mph 89% 0.00 in 0 W/m2
22:34 52.9 °F 50.5 °F 30.07 in SSW 0.2 mph 1 mph 89% 0.00 in 0 W/m2
22:39 53.1 °F 50.7 °F 30.07 in SSW 0.9 mph 3 mph 89% 0.00 in 0 W/m2
22:44 53.1 °F 50.7 °F 30.07 in Calm   3 mph 89% 0.00 in 0 W/m2
22:49 53.1 °F 50.7 °F 30.07 in SSW 0.2 mph 3 mph 89% 0.00 in 0 W/m2
22:54 53.1 °F 50.7 °F 30.07 in SSW 0.2 mph 2 mph 89% 0.00 in 0 W/m2
22:59 53.1 °F 50.9 °F 30.07 in SSW 1.4 mph 3 mph 89.6% 0.00 in 0 W/m2
23:04 53.1 °F 51.1 °F 30.07 in SSW 0.5 mph 3 mph 90% 0.00 in 0 W/m2
23:09 52.9 °F 50.9 °F 30.07 in SSW 0.2 mph 2 mph 90% 0.00 in 0 W/m2
23:14 52.9 °F 50.9 °F 30.07 in SSW 1 mph 4 mph 90% 0.00 in 0 W/m2
23:19 52.9 °F 50.9 °F 30.07 in Calm   2 mph 90% 0.00 in 0 W/m2
23:24 52.9 °F 50.9 °F 30.07 in Calm     90% 0.00 in 0 W/m2
23:29 52.9 °F 50.9 °F 30.07 in SSW 0.8 mph 2 mph 90% 0.00 in 0 W/m2
23:34 52.7 °F 50.7 °F 30.07 in SSW 0.4 mph 2 mph 90% 0.00 in 0 W/m2
23:39 52.7 °F 50.7 °F 30.06 in SSW 0.9 mph 2 mph 90% 0.00 in 0 W/m2
23:44 52.6 °F 50.6 °F 30.06 in SSW 0.5 mph 2 mph 90% 0.00 in 0 W/m2
23:49 52.5 °F 50.5 °F 30.06 in SSW 1 mph 2 mph 90% 0.00 in 0 W/m2
23:54 52.5 °F 50.9 °F 30.06 in SSW 0.5 mph 2 mph 91% 0.00 in 0 W/m2
23:59 52.4 °F 50.8 °F 30.06 in Calm     91% 0.00 in 0 W/m2
Bath Spa Weather
Compliments of Weather Underground - 2 mb